Plainview, Virginia
Current Conditions -  °F | °C
As of 4:35 PM on Wednesday 17 Dec 2014 (Local Time) from KFYJ Reporting Station
Clear Clear  
Wind Chill: 53°   Ceiling: Unl
Heat Index: 53°   Visibility: 10mi
Dew Point: 38°   Wind: 3mph
Humidity: 57%   Direction: 250°WSW
Pressure: 29.99"   Gusts: NA
Location:  37.5357°N, 76.7136°W
Report Text: KFYJ 172135Z AUTO 25003KT 10SM CLR 12/04 A2999 RMK AO2 T01170035
Loading
Personal Weather Stations






























Interactive Weather Map New forecast layout! Learn more

10-Day Weather Forecast

Advertisements
Track Severe Weather on mobile